Kasterlee, Belgium
Current Conditions -  °F | °C
As of 4:25 AM on Saturday 25 Oct 2014 (Local Time) from EBDT Reporting Station
Overcast Overcast  
Wind Chill: 52°   Ceiling: 600
Heat Index: 52°   Visibility: 3mi
Dew Point: 52°   Wind: 6mph
Humidity: 100%   Direction: 210°SSW
Pressure: 30.03"   Gusts: NA
Location:  51.24°N, 4.97°E
Report Text: EBDT 250225Z AUTO 21005KT 5000 FEW004/// BKN006/// OVC008/// 11/11 Q1017 YLO
Loading
Personal Weather Stations






























Interactive Weather Map
Tropical Storm Tracking
New forecast layout! Learn more

10-Day Weather Forecast

Advertisements
Track Severe Weather on mobile